createdAt,value
2022-09-28T00:02:18.475Z,7.87
2022-09-28T00:04:44.921Z,7.96
2022-09-28T00:07:11.302Z,7.94
2022-09-28T00:09:38.298Z,7.95
2022-09-28T00:12:04.701Z,7.91
2022-09-28T00:14:32.263Z,7.86
2022-09-28T00:16:58.570Z,7.87
2022-09-28T00:19:24.923Z,7.85
2022-09-28T00:21:51.296Z,7.83
2022-09-28T00:24:22.998Z,7.83
2022-09-28T00:26:54.195Z,7.86
2022-09-28T00:29:22.769Z,7.83
2022-09-28T00:31:52.338Z,7.85
2022-09-28T00:34:19.075Z,7.78
2022-09-28T00:36:46.635Z,7.86
2022-09-28T00:39:15.656Z,7.88
2022-09-28T00:41:42.482Z,7.87
2022-09-28T00:44:24.171Z,7.87
2022-09-28T00:47:01.746Z,7.92
2022-09-28T00:49:52.586Z,7.97
2022-09-28T00:52:28.259Z,8.03
2022-09-28T00:54:55.571Z,7.94
2022-09-28T00:57:23.054Z,7.87
2022-09-28T00:59:51.156Z,7.83
2022-09-28T01:02:17.829Z,7.87
2022-09-28T01:04:44.293Z,7.92
2022-09-28T01:07:12.259Z,7.88
2022-09-28T01:09:39.757Z,7.93
2022-09-28T01:12:06.942Z,7.89
2022-09-28T01:14:33.667Z,7.89
2022-09-28T01:17:38.192Z,7.94
2022-09-28T01:20:23.136Z,7.93
2022-09-28T01:23:24.119Z,7.88
2022-09-28T01:26:27.498Z,7.87
2022-09-28T01:29:08.642Z,7.89
2022-09-28T01:31:37.082Z,7.84
2022-09-28T01:34:16.119Z,7.80
2022-09-28T01:36:47.992Z,7.83
2022-09-28T01:39:34.045Z,7.90
2022-09-28T01:42:05.591Z,7.92
2022-09-28T01:44:39.583Z,7.90
2022-09-28T01:47:10.755Z,7.87
2022-09-28T01:49:42.155Z,7.81
2022-09-28T01:52:31.430Z,7.81
2022-09-28T01:55:20.115Z,7.74
2022-09-28T01:57:54.963Z,7.65
2022-09-28T02:00:24.087Z,7.68
2022-09-28T02:03:09.048Z,7.52
2022-09-28T02:05:49.160Z,7.54
2022-09-28T02:08:37.033Z,7.50
2022-09-28T02:11:14.489Z,7.42
2022-09-28T02:13:45.735Z,7.44
2022-09-28T02:16:22.789Z,7.39
2022-09-28T02:18:50.448Z,7.43
2022-09-28T02:21:25.858Z,7.42
2022-09-28T02:24:05.523Z,7.36
2022-09-28T02:26:39.124Z,7.29
2022-09-28T02:29:05.486Z,7.29
2022-09-28T02:31:31.978Z,7.36
2022-09-28T02:33:59.040Z,7.32
2022-09-28T02:36:27.324Z,7.24
2022-09-28T02:38:54.974Z,7.18
2022-09-28T02:41:38.634Z,7.17
2022-09-28T02:44:29.554Z,7.13
2022-09-28T02:47:05.736Z,7.12
2022-09-28T02:49:50.952Z,7.14
2022-09-28T02:52:32.663Z,7.18
2022-09-28T02:55:23.896Z,7.14
2022-09-28T02:58:17.073Z,7.07
2022-09-28T03:00:58.224Z,7.05
2022-09-28T03:03:37.409Z,7.00
2022-09-28T03:06:11.082Z,7.02
2022-09-28T03:09:05.645Z,6.95
2022-09-28T03:11:39.261Z,7.00
2022-09-28T03:14:06.527Z,6.92
2022-09-28T03:16:32.990Z,6.93
2022-09-28T03:18:59.325Z,7.03
2022-09-28T03:21:25.644Z,6.95
2022-09-28T03:23:52.028Z,6.96
2022-09-28T03:26:19.156Z,6.96
2022-09-28T03:28:45.532Z,6.98
2022-09-28T03:31:11.996Z,6.94
2022-09-28T03:33:38.421Z,6.91
2022-09-28T03:36:05.736Z,6.88
2022-09-28T03:38:32.043Z,6.84
2022-09-28T03:41:00.151Z,6.83
2022-09-28T03:43:27.862Z,6.77
2022-09-28T03:45:56.026Z,6.81
2022-09-28T03:48:31.893Z,6.79
2022-09-28T03:51:09.040Z,6.75
2022-09-28T03:53:36.310Z,6.66
2022-09-28T03:56:08.327Z,6.62
2022-09-28T03:58:34.903Z,6.55
2022-09-28T04:01:03.513Z,6.56
2022-09-28T04:03:30.019Z,6.64
2022-09-28T04:05:56.376Z,6.57
2022-09-28T04:08:22.762Z,6.67
2022-09-28T04:10:49.104Z,6.68
2022-09-28T04:13:15.550Z,6.66
2022-09-28T04:15:42.718Z,6.67
2022-09-28T04:18:11.127Z,6.59
2022-09-28T04:20:37.795Z,6.58
2022-09-28T04:23:04.190Z,6.68
2022-09-28T04:25:30.552Z,6.66
2022-09-28T04:28:15.482Z,6.64
2022-09-28T04:30:41.772Z,6.58
2022-09-28T04:33:08.086Z,6.56
2022-09-28T04:35:34.463Z,6.54
2022-09-28T04:38:00.824Z,6.35
2022-09-28T04:40:27.181Z,6.38
2022-09-28T04:42:55.353Z,6.44
2022-09-28T04:45:22.206Z,6.22
2022-09-28T04:47:48.585Z,6.24
2022-09-28T04:50:15.135Z,6.14
2022-09-28T04:52:41.416Z,6.26
2022-09-28T04:55:11.569Z,6.23
2022-09-28T04:57:37.906Z,6.17
2022-09-28T05:00:05.340Z,6.16
2022-09-28T05:02:32.268Z,6.16
2022-09-28T05:04:58.988Z,6.09
2022-09-28T05:07:29.097Z,6.19
2022-09-28T05:09:55.795Z,6.19
2022-09-28T05:12:22.150Z,6.27
2022-09-28T05:14:48.528Z,6.16
2022-09-28T05:17:14.856Z,6.02
2022-09-28T05:19:41.168Z,6.03
2022-09-28T05:22:11.248Z,6.07
2022-09-28T05:24:37.577Z,6.14
2022-09-28T05:27:03.986Z,6.01
2022-09-28T05:29:32.367Z,5.97
2022-09-28T05:32:01.341Z,6.08
2022-09-28T05:34:27.839Z,6.08
2022-09-28T05:36:54.141Z,6.08
2022-09-28T05:39:20.627Z,6.08
2022-09-28T05:41:46.925Z,5.93
2022-09-28T05:44:13.260Z,5.98
2022-09-28T05:46:39.581Z,5.97
2022-09-28T05:49:05.883Z,5.94
2022-09-28T05:51:32.236Z,6.04
2022-09-28T05:54:01.802Z,6.06
2022-09-28T05:56:31.383Z,5.98
2022-09-28T05:58:58.572Z,6.04
2022-09-28T06:01:25.212Z,5.88
2022-09-28T06:03:51.662Z,5.88
2022-09-28T06:06:17.950Z,5.98
2022-09-28T06:08:46.080Z,5.90
2022-09-28T06:11:12.452Z,5.89
2022-09-28T06:13:39.908Z,5.99
2022-09-28T06:16:08.270Z,6.01
2022-09-28T06:18:34.718Z,6.16
2022-09-28T06:21:01.827Z,6.18
2022-09-28T06:23:28.224Z,6.18
2022-09-28T06:25:54.514Z,6.12
2022-09-28T06:28:20.815Z,6.18
2022-09-28T06:30:48.036Z,6.11
2022-09-28T06:33:14.930Z,6.08
2022-09-28T06:35:42.105Z,6.19
2022-09-28T06:38:08.536Z,6.28
2022-09-28T06:40:35.732Z,6.42
2022-09-28T06:43:10.432Z,6.27
2022-09-28T06:45:38.042Z,6.31
2022-09-28T06:48:05.178Z,6.33
2022-09-28T06:50:35.820Z,6.45
2022-09-28T06:53:02.188Z,6.39
2022-09-28T06:55:29.173Z,6.17
2022-09-28T06:58:00.671Z,6.22
2022-09-28T07:00:28.642Z,6.24
2022-09-28T07:02:54.958Z,6.19
2022-09-28T07:05:26.579Z,6.08
2022-09-28T07:07:57.256Z,6.24
2022-09-28T07:10:24.771Z,6.10
2022-09-28T07:12:51.964Z,6.17
2022-09-28T07:15:20.481Z,6.22
2022-09-28T07:18:00.645Z,6.21
2022-09-28T07:20:28.816Z,6.38
2022-09-28T07:22:58.346Z,6.39
2022-09-28T07:25:32.280Z,6.34
2022-09-28T07:27:59.813Z,6.35
2022-09-28T07:30:28.182Z,6.40
2022-09-28T07:32:55.171Z,6.18
2022-09-28T07:35:22.158Z,6.36
2022-09-28T07:37:48.421Z,6.38
2022-09-28T07:40:33.696Z,6.47
2022-09-28T07:43:06.540Z,6.57
2022-09-28T07:45:35.916Z,6.52
2022-09-28T07:48:03.246Z,6.44
2022-09-28T07:50:29.579Z,6.65
2022-09-28T07:52:57.205Z,6.69
2022-09-28T07:55:24.266Z,6.87
2022-09-28T07:57:59.488Z,6.66
2022-09-28T08:00:25.770Z,6.74
2022-09-28T08:02:52.076Z,6.75
2022-09-28T08:05:18.538Z,6.54
2022-09-28T08:07:44.939Z,6.55
2022-09-28T08:10:11.581Z,6.69
2022-09-28T08:12:40.600Z,6.96
2022-09-28T08:15:10.238Z,7.03
2022-09-28T08:17:36.969Z,6.90
2022-09-28T08:20:22.450Z,6.90
2022-09-28T08:22:48.799Z,7.20
2022-09-28T08:25:15.109Z,7.20
2022-09-28T08:27:41.446Z,7.22
2022-09-28T08:30:08.272Z,7.27
2022-09-28T08:32:35.655Z,7.19
2022-09-28T08:35:01.952Z,7.23
2022-09-28T08:37:28.308Z,7.13
2022-09-28T08:39:54.666Z,7.11
2022-09-28T08:42:54.163Z,7.21
2022-09-28T08:45:27.285Z,7.20
2022-09-28T08:48:20.515Z,7.08
2022-09-28T08:51:31.492Z,7.05
2022-09-28T08:54:11.733Z,7.03
2022-09-28T08:56:47.475Z,7.16
2022-09-28T08:59:27.726Z,7.16
2022-09-28T09:02:00.781Z,7.18
2022-09-28T09:04:27.215Z,7.08
2022-09-28T09:07:48.312Z,7.05
2022-09-28T09:10:48.992Z,6.89
2022-09-28T09:13:24.012Z,7.01
2022-09-28T09:16:28.212Z,7.08
2022-09-28T09:19:06.646Z,6.96
2022-09-28T09:21:50.323Z,7.12
2022-09-28T09:24:48.864Z,7.13
2022-09-28T09:27:30.768Z,7.09
2022-09-28T09:30:04.516Z,7.20
2022-09-28T09:32:58.886Z,7.07
2022-09-28T09:35:46.878Z,6.97
2022-09-28T09:38:36.663Z,7.04
2022-09-28T09:41:32.307Z,7.16
2022-09-28T09:44:21.730Z,7.21
2022-09-28T09:47:07.669Z,7.24
2022-09-28T09:49:48.722Z,7.01
2022-09-28T09:52:24.023Z,7.15
2022-09-28T09:55:05.473Z,7.26
2022-09-28T09:57:39.480Z,7.40
2022-09-28T10:00:12.816Z,7.34
2022-09-28T10:02:39.859Z,7.51
2022-09-28T10:05:12.191Z,7.51
2022-09-28T10:07:46.507Z,7.75
2022-09-28T10:10:21.338Z,7.87
2022-09-28T10:12:51.969Z,7.79
2022-09-28T10:15:24.186Z,7.58
2022-09-28T10:17:50.674Z,7.68
2022-09-28T10:20:17.520Z,7.70
2022-09-28T10:22:44.093Z,7.91
2022-09-28T10:25:12.534Z,7.60
2022-09-28T10:27:45.555Z,7.53
2022-09-28T10:30:23.178Z,7.83
2022-09-28T10:32:52.359Z,7.98
2022-09-28T10:35:18.640Z,7.88
2022-09-28T10:37:56.344Z,7.97
2022-09-28T10:40:30.577Z,7.87
2022-09-28T10:43:29.043Z,8.12
2022-09-28T10:46:10.173Z,8.40
2022-09-28T10:48:49.127Z,8.62
2022-09-28T10:51:16.474Z,8.60
2022-09-28T10:53:58.815Z,8.64
2022-09-28T10:56:29.434Z,8.78
2022-09-28T10:58:55.953Z,8.73
2022-09-28T11:01:40.298Z,8.83
2022-09-28T11:04:10.555Z,8.93
2022-09-28T11:06:39.130Z,8.73
2022-09-28T11:09:18.599Z,8.47
2022-09-28T11:11:45.238Z,8.77
2022-09-28T11:14:26.215Z,8.62
2022-09-28T11:17:15.625Z,8.84
2022-09-28T11:19:42.147Z,8.94
2022-09-28T11:22:28.830Z,9.42
2022-09-28T11:25:17.018Z,9.61
2022-09-28T11:27:57.046Z,9.41
2022-09-28T11:30:23.473Z,9.39
2022-09-28T11:32:52.099Z,9.24
2022-09-28T11:35:23.295Z,9.46
2022-09-28T11:38:02.475Z,9.45
2022-09-28T11:40:54.280Z,9.33
2022-09-28T11:43:41.518Z,9.58
2022-09-28T11:46:33.087Z,9.78
2022-09-28T11:49:33.210Z,9.70
2022-09-28T11:52:05.891Z,9.88
2022-09-28T11:54:51.703Z,9.99
2022-09-28T11:57:27.923Z,10.02
2022-09-28T12:00:03.611Z,10.29
2022-09-28T12:02:36.783Z,10.32
2022-09-28T12:05:20.668Z,10.20
2022-09-28T12:07:55.975Z,10.12
2022-09-28T12:10:45.557Z,10.25
2022-09-28T12:13:16.809Z,10.35
2022-09-28T12:16:23.055Z,10.42
2022-09-28T12:18:56.166Z,10.41
2022-09-28T12:21:31.804Z,10.64
2022-09-28T12:24:38.953Z,10.82
2022-09-28T12:27:38.700Z,10.72
2022-09-28T12:30:14.212Z,10.86
2022-09-28T12:32:53.190Z,10.70
2022-09-28T12:35:39.109Z,10.80
2022-09-28T12:38:29.129Z,10.88
2022-09-28T12:41:07.417Z,11.22
2022-09-28T12:43:56.834Z,11.32
2022-09-28T12:46:32.468Z,11.39
2022-09-28T12:52:00.262Z,11.63
2022-09-28T12:54:46.641Z,11.56
2022-09-28T12:57:42.365Z,11.88
2022-09-28T13:00:15.262Z,11.83
2022-09-28T13:03:03.557Z,11.60
2022-09-28T13:05:36.537Z,11.80
2022-09-28T13:08:08.780Z,11.86
2022-09-28T13:10:48.515Z,11.76
2022-09-28T13:13:33.779Z,11.87
2022-09-28T13:16:19.261Z,11.97
2022-09-28T13:18:51.641Z,11.86
2022-09-28T13:21:45.847Z,11.92
2022-09-28T13:24:31.561Z,11.62
2022-09-28T13:27:05.343Z,11.64
2022-09-28T13:29:32.259Z,11.69
2022-09-28T13:32:01.212Z,11.76
2022-09-28T13:34:30.641Z,11.77
2022-09-28T13:37:19.826Z,11.69
2022-09-28T13:39:46.051Z,11.66
2022-09-28T13:42:24.768Z,11.69
2022-09-28T13:45:09.425Z,11.77
2022-09-28T13:48:12.052Z,11.90
2022-09-28T13:50:50.352Z,12.02
2022-09-28T13:53:58.712Z,12.23
2022-09-28T13:56:28.293Z,12.07
2022-09-28T13:59:20.637Z,11.73
2022-09-28T14:02:28.818Z,11.77
2022-09-28T14:05:24.890Z,11.55
2022-09-28T14:08:09.664Z,11.38
2022-09-28T14:10:57.067Z,11.51
2022-09-28T14:13:42.138Z,11.54
2022-09-28T14:16:17.610Z,11.67
2022-09-28T14:18:51.815Z,11.56
2022-09-28T14:21:55.938Z,11.68
2022-09-28T14:24:57.702Z,11.75
2022-09-28T14:27:52.454Z,11.75
2022-09-28T14:30:23.130Z,11.84
2022-09-28T14:33:00.052Z,11.95
2022-09-28T14:35:56.355Z,11.90
2022-09-28T14:38:49.478Z,12.19
2022-09-28T14:41:15.716Z,12.27
2022-09-28T14:43:44.740Z,12.23
2022-09-28T14:46:20.768Z,12.18
2022-09-28T14:49:05.587Z,11.89
2022-09-28T14:51:35.375Z,11.47
2022-09-28T14:54:07.783Z,11.43
2022-09-28T14:56:49.505Z,11.61
2022-09-28T14:59:22.419Z,11.59
2022-09-28T15:01:57.819Z,11.44
2022-09-28T15:04:28.850Z,11.32
2022-09-28T15:06:55.459Z,11.43
2022-09-28T15:09:34.211Z,11.12
2022-09-28T15:12:07.494Z,11.08
2022-09-28T15:14:40.792Z,11.03
2022-09-28T15:17:12.147Z,11.20
2022-09-28T15:20:03.550Z,11.27
2022-09-28T15:22:30.273Z,11.11
2022-09-28T15:25:02.413Z,11.21
2022-09-28T15:27:37.783Z,11.10
2022-09-28T15:30:19.981Z,11.09
2022-09-28T15:32:46.327Z,11.20
2022-09-28T15:35:20.441Z,11.08
2022-09-28T15:37:52.072Z,11.02
2022-09-28T15:40:29.719Z,10.82
2022-09-28T15:42:59.254Z,10.92
2022-09-28T15:45:38.305Z,10.84
2022-09-28T15:48:29.051Z,10.74
2022-09-28T15:51:01.215Z,10.78
2022-09-28T15:53:27.901Z,10.72
2022-09-28T15:56:03.390Z,10.87
2022-09-28T15:58:29.719Z,10.93
2022-09-28T16:01:35.704Z,10.86
2022-09-28T16:04:38.895Z,10.82
2022-09-28T16:07:18.892Z,10.76
2022-09-28T16:10:13.673Z,10.78
2022-09-28T16:12:39.924Z,10.87
2022-09-28T16:15:23.233Z,10.94
2022-09-28T16:17:50.962Z,10.91
2022-09-28T16:20:28.938Z,10.87
2022-09-28T16:23:05.908Z,10.78
2022-09-28T16:25:37.009Z,10.62
2022-09-28T16:28:04.634Z,10.67
2022-09-28T16:30:33.809Z,10.80
2022-09-28T16:33:02.529Z,10.84
2022-09-28T16:35:30.712Z,10.80
2022-09-28T16:38:11.952Z,10.75
2022-09-28T16:40:43.241Z,10.67
2022-09-28T16:43:36.458Z,10.60
2022-09-28T16:46:09.061Z,10.61
2022-09-28T16:48:48.519Z,10.63
2022-09-28T16:51:19.847Z,10.56
2022-09-28T16:54:05.128Z,10.49
2022-09-28T16:56:33.587Z,10.36
2022-09-28T16:58:59.950Z,10.33
2022-09-28T17:01:26.412Z,10.30
2022-09-28T17:03:52.710Z,10.23
2022-09-28T17:06:21.803Z,10.08
2022-09-28T17:08:48.124Z,9.95
2022-09-28T17:11:22.781Z,9.85
2022-09-28T17:13:50.468Z,9.78
2022-09-28T17:16:28.216Z,9.61
2022-09-28T17:19:03.443Z,9.50
2022-09-28T17:21:29.809Z,9.45
2022-09-28T17:23:56.081Z,9.42
2022-09-28T17:26:30.574Z,9.39
2022-09-28T17:29:01.639Z,9.26
2022-09-28T17:31:29.675Z,9.23
2022-09-28T17:33:56.059Z,9.12
2022-09-28T17:36:22.601Z,9.10
2022-09-28T17:38:51.570Z,8.99
2022-09-28T17:41:20.617Z,8.88
2022-09-28T17:43:47.742Z,8.80
2022-09-28T17:46:22.154Z,8.74
2022-09-28T17:48:48.976Z,8.78
2022-09-28T17:51:15.328Z,8.72
2022-09-28T17:53:41.706Z,8.56
2022-09-28T17:56:09.609Z,8.45
2022-09-28T17:58:36.069Z,8.39
2022-09-28T18:01:02.407Z,8.37
2022-09-28T18:03:28.761Z,8.39
2022-09-28T18:06:10.867Z,8.38
2022-09-28T18:08:37.219Z,8.35
2022-09-28T18:11:03.615Z,8.22
2022-09-28T18:13:29.963Z,8.10
2022-09-28T18:15:56.767Z,8.11
2022-09-28T18:18:24.016Z,8.06
2022-09-28T18:20:51.303Z,7.98
2022-09-28T18:23:17.770Z,8.03
2022-09-28T18:25:45.907Z,7.97
2022-09-28T18:28:13.265Z,7.90
2022-09-28T18:30:41.818Z,7.80
2022-09-28T18:33:09.348Z,7.75
2022-09-28T18:35:36.575Z,7.64
2022-09-28T18:38:05.244Z,7.52
2022-09-28T18:40:32.818Z,7.45
2022-09-28T18:42:59.188Z,7.46
2022-09-28T18:45:25.511Z,7.48
2022-09-28T18:47:51.894Z,7.42
2022-09-28T18:50:18.242Z,7.35
2022-09-28T18:52:47.089Z,7.37
2022-09-28T18:55:13.969Z,7.27
2022-09-28T18:57:41.294Z,7.11
2022-09-28T19:00:12.146Z,6.99
2022-09-28T19:02:38.870Z,6.99
2022-09-28T19:05:07.868Z,6.99
2022-09-28T19:07:34.222Z,6.92
2022-09-28T19:10:00.617Z,6.90
2022-09-28T19:12:26.907Z,6.81
2022-09-28T19:14:53.291Z,6.78
2022-09-28T19:17:19.666Z,6.84
2022-09-28T19:19:46.103Z,6.87
2022-09-28T19:22:12.535Z,6.87
2022-09-28T19:24:38.882Z,6.91
2022-09-28T19:27:05.193Z,6.79
2022-09-28T19:29:31.490Z,6.82
2022-09-28T19:31:58.037Z,6.78
2022-09-28T19:34:26.830Z,6.91
2022-09-28T19:36:53.132Z,6.96
2022-09-28T19:39:19.713Z,6.96
2022-09-28T19:41:52.897Z,6.90
2022-09-28T19:44:25.277Z,6.84
2022-09-28T19:47:09.849Z,6.81
2022-09-28T19:49:38.596Z,6.92
2022-09-28T19:52:13.475Z,6.91
2022-09-28T19:54:48.949Z,6.81
2022-09-28T19:57:15.674Z,6.79
2022-09-28T19:59:42.194Z,6.80
2022-09-28T20:02:10.517Z,6.87
2022-09-28T20:04:36.903Z,6.84
2022-09-28T20:07:04.182Z,6.78
2022-09-28T20:09:31.836Z,6.68
2022-09-28T20:11:58.208Z,6.63
2022-09-28T20:14:25.933Z,6.65
2022-09-28T20:16:54.701Z,6.57
2022-09-28T20:19:22.994Z,6.53
2022-09-28T20:21:49.535Z,6.52
2022-09-28T20:24:17.026Z,6.53
2022-09-28T20:26:44.497Z,6.55
2022-09-28T20:29:11.346Z,6.54
2022-09-28T20:31:38.352Z,6.60
2022-09-28T20:34:05.880Z,6.70
2022-09-28T20:36:32.863Z,6.58
2022-09-28T20:39:03.141Z,6.52
2022-09-28T20:41:35.493Z,6.48
2022-09-28T20:44:05.744Z,6.50
2022-09-28T20:46:32.930Z,6.51
2022-09-28T20:48:59.586Z,6.53
2022-09-28T20:51:26.390Z,6.61
2022-09-28T20:53:55.526Z,6.68
2022-09-28T20:56:39.224Z,6.68
2022-09-28T20:59:11.419Z,6.78
2022-09-28T21:01:38.774Z,6.82
2022-09-28T21:04:07.507Z,6.79
2022-09-28T21:06:36.170Z,6.83
2022-09-28T21:09:04.513Z,6.84
2022-09-28T21:11:30.816Z,6.85
2022-09-28T21:14:02.588Z,6.90
2022-09-28T21:16:31.544Z,6.85
2022-09-28T21:18:58.395Z,6.85
2022-09-28T21:21:25.616Z,6.94
2022-09-28T21:23:56.015Z,6.88
2022-09-28T21:26:25.166Z,6.81
2022-09-28T21:28:59.976Z,6.79
2022-09-28T21:31:31.297Z,6.77
2022-09-28T21:33:58.517Z,6.75
2022-09-28T21:36:25.396Z,6.74
2022-09-28T21:38:53.372Z,6.74
2022-09-28T21:41:19.726Z,6.82
2022-09-28T21:43:46.243Z,6.92
2022-09-28T21:46:12.855Z,6.96
2022-09-28T21:48:39.354Z,6.93
2022-09-28T21:51:09.005Z,6.84
2022-09-28T21:53:37.582Z,6.83
2022-09-28T21:56:06.485Z,6.74
2022-09-28T21:58:35.248Z,6.78
2022-09-28T22:01:07.816Z,6.79
2022-09-28T22:03:36.037Z,6.65
2022-09-28T22:06:03.428Z,6.66
2022-09-28T22:08:29.866Z,6.51
2022-09-28T22:11:02.198Z,6.50
2022-09-28T22:13:29.860Z,6.45
2022-09-28T22:15:58.639Z,6.48
2022-09-28T22:18:26.608Z,6.48
2022-09-28T22:21:08.956Z,6.45
2022-09-28T22:23:36.636Z,6.41
2022-09-28T22:26:09.761Z,6.34
2022-09-28T22:28:36.305Z,6.27
2022-09-28T22:31:03.120Z,6.44
2022-09-28T22:33:29.592Z,6.55
2022-09-28T22:35:55.970Z,6.58
2022-09-28T22:38:24.344Z,6.49
2022-09-28T22:40:56.123Z,6.53
2022-09-28T22:43:23.722Z,6.51
2022-09-28T22:45:50.662Z,6.46
2022-09-28T22:48:17.015Z,6.27
2022-09-28T22:50:50.182Z,6.15
2022-09-28T22:53:16.788Z,6.11
2022-09-28T22:55:43.551Z,6.22
2022-09-28T22:58:10.110Z,6.26
2022-09-28T23:00:36.785Z,6.16
2022-09-28T23:03:03.655Z,6.03
2022-09-28T23:05:30.146Z,5.87
2022-09-28T23:07:56.601Z,5.94
2022-09-28T23:10:22.927Z,5.90
2022-09-28T23:12:49.449Z,5.91
2022-09-28T23:15:15.914Z,5.82
2022-09-28T23:17:42.264Z,5.74
2022-09-28T23:20:08.879Z,5.80
2022-09-28T23:22:35.192Z,5.82
2022-09-28T23:25:01.685Z,5.86
2022-09-28T23:27:27.986Z,5.77
2022-09-28T23:29:54.300Z,5.79
2022-09-28T23:32:20.636Z,5.68
2022-09-28T23:34:47.216Z,5.59
2022-09-28T23:37:13.564Z,5.47
2022-09-28T23:39:39.852Z,5.48
2022-09-28T23:42:06.244Z,5.49
2022-09-28T23:44:33.081Z,5.49
2022-09-28T23:46:59.507Z,5.46
2022-09-28T23:49:25.895Z,5.40
2022-09-28T23:51:52.325Z,5.36
2022-09-28T23:54:18.650Z,5.35
2022-09-28T23:56:45.027Z,5.32
2022-09-28T23:59:11.370Z,5.29
